Time;durP1;ratioP1;P1;durP2;ratioP2;P2;SDS_P1;SDS_P2;PMS_P1;PMS_P2;Temp;Humidity;BMP_temperature;BMP_pressure;BME280_temperature;BME280_humidity;BME280_pressure;Samples;Min_cycle;Max_cycle;Signal;HPM_P1;HPM_P2
2022/06/09 00:00:20;;;;;;;6.78;2.40;;;;;;;18.27;60.33;100502.53;1717163;82;25469;-55
2022/06/09 00:02:53;;;;;;;5.33;2.05;;;;;;;18.25;60.45;100502.38;1700927;83;25943;-55
2022/06/09 00:05:22;;;;;;;3.65;2.17;;;;;;;18.21;60.11;100502.45;1705677;83;25945;-55
2022/06/09 00:07:52;;;;;;;5.25;2.40;;;;;;;18.14;60.27;100491.48;1702825;83;25501;-55
2022/06/09 00:10:24;;;;;;;5.67;2.05;;;;;;;18.10;60.38;100493.76;1720398;83;25888;-56
2022/06/09 00:12:51;;;;;;;9.30;2.00;;;;;;;18.07;60.61;100488.69;1705008;83;25769;-53
2022/06/09 00:15:18;;;;;;;5.28;2.20;;;;;;;18.04;60.37;100492.31;1707135;83;27076;-55
2022/06/09 00:17:45;;;;;;;7.30;2.37;;;;;;;17.99;60.47;100488.31;1708081;83;26399;-55
2022/06/09 00:20:14;;;;;;;7.42;2.47;;;;;;;17.95;60.73;100495.13;1701391;83;25775;-55
2022/06/09 00:22:41;;;;;;;4.10;2.25;;;;;;;17.90;61.10;100489.93;1730279;81;25854;-55
2022/06/09 00:25:10;;;;;;;5.90;2.33;;;;;;;17.84;61.88;100495.11;1746629;80;25820;-56
2022/06/09 00:27:37;;;;;;;3.45;1.92;;;;;;;17.80;61.51;100497.87;1737234;81;27484;-56
2022/06/09 00:30:07;;;;;;;9.60;2.22;;;;;;;17.78;61.64;100495.02;1723215;81;25885;-54
2022/06/09 00:32:35;;;;;;;5.92;2.30;;;;;;;17.76;61.63;100495.23;1740535;81;25867;-55
2022/06/09 00:35:02;;;;;;;6.47;2.67;;;;;;;17.74;61.67;100497.28;1738079;81;25849;-55
2022/06/09 00:37:29;;;;;;;7.72;2.52;;;;;;;17.72;61.70;100503.95;1727533;81;25721;-55
2022/06/09 00:39:57;;;;;;;5.67;2.20;;;;;;;17.71;61.65;100507.17;1727781;82;27459;-55
2022/06/09 00:42:24;;;;;;;4.72;1.87;;;;;;;17.65;61.92;100507.95;1734808;80;25811;-53
2022/06/09 00:44:51;;;;;;;6.53;2.00;;;;;;;17.63;62.17;100503.20;1693872;83;25775;-55
2022/06/09 00:47:26;;;;;;;3.00;1.90;;;;;;;17.62;62.10;100505.59;1720442;82;25910;-55
2022/06/09 00:50:02;;;;;;;5.50;2.20;;;;;;;17.60;62.09;100499.52;1697630;83;25800;-55
2022/06/09 00:52:33;;;;;;;6.42;2.05;;;;;;;17.61;62.23;100499.86;1696182;83;27492;-55
2022/06/09 00:55:05;;;;;;;5.10;2.00;;;;;;;17.58;62.24;100502.41;1693908;84;25823;-55
2022/06/09 00:57:37;;;;;;;4.30;2.10;;;;;;;17.59;62.33;100500.55;1697328;83;26057;-56
2022/06/09 01:00:09;;;;;;;3.42;2.10;;;;;;;17.58;62.52;100503.77;1695975;83;25862;-55
2022/06/09 01:02:38;;;;;;;6.13;2.63;;;;;;;17.58;62.50;100503.77;1698215;84;25920;-55
2022/06/09 01:05:07;;;;;;;4.03;2.30;;;;;;;17.56;62.58;100507.22;1692006;84;27640;-55
2022/06/09 01:07:39;;;;;;;7.45;2.20;;;;;;;17.55;62.61;100512.83;1693027;84;25500;-55
2022/06/09 01:10:08;;;;;;;3.47;2.00;;;;;;;17.53;62.68;100507.59;1689675;84;25710;-55
2022/06/09 01:12:40;;;;;;;8.53;2.40;;;;;;;17.48;62.77;100512.76;1709771;83;25783;-55
2022/06/09 01:15:18;;;;;;;5.35;2.37;;;;;;;17.42;63.14;100514.35;1704981;83;25916;-55
2022/06/09 01:18:08;;;;;;;5.12;2.47;;;;;;;17.38;63.05;100526.62;1703789;83;27728;-54
2022/06/09 01:21:04;;;;;;;4.87;2.45;;;;;;;17.35;63.19;100526.98;1700003;83;25907;-55
2022/06/09 01:23:54;;;;;;;4.42;2.55;;;;;;;17.32;63.35;100528.20;1703788;83;25667;-55
2022/06/09 01:26:52;;;;;;;6.08;2.45;;;;;;;17.30;63.22;100528.07;1702921;83;25831;-55
2022/06/09 01:29:39;;;;;;;4.78;2.15;;;;;;;17.30;63.17;100530.27;1689561;83;25790;-55
2022/06/09 01:32:50;;;;;;;8.13;2.05;;;;;;;17.26;63.27;100530.32;1681774;84;27611;-55
2022/06/09 01:35:40;;;;;;;8.58;2.62;;;;;;;17.21;63.15;100522.73;1681571;84;25707;-55
2022/06/09 01:38:07;;;;;;;9.23;2.30;;;;;;;17.11;63.29;100527.58;1680982;84;25757;-55
2022/06/09 01:40:34;;;;;;;6.95;2.15;;;;;;;17.06;63.64;100520.52;1684418;83;25843;-55
2022/06/09 01:43:02;;;;;;;3.12;2.00;;;;;;;17.03;63.44;100520.34;1681366;83;25953;-55
2022/06/09 01:46:02;;;;;;;5.78;2.52;;;;;;;17.04;63.53;100528.00;1680880;84;28504;-54
2022/06/09 01:48:30;;;;;;;5.80;2.15;;;;;;;17.02;63.39;100524.12;1702725;83;25830;-55
2022/06/09 01:51:03;;;;;;;9.03;2.55;;;;;;;16.98;63.43;100525.50;1705895;83;25980;-55
2022/06/09 01:53:39;;;;;;;7.83;2.20;;;;;;;17.00;63.70;100522.59;1712008;83;35102;-55
2022/06/09 01:56:11;;;;;;;8.35;2.20;;;;;;;17.02;63.74;100519.17;1698687;83;26471;-55
2022/06/09 01:58:55;;;;;;;5.67;2.50;;;;;;;17.00;63.90;100515.80;1700116;83;28504;-55
2022/06/09 02:01:27;;;;;;;4.65;2.05;;;;;;;16.99;63.94;100515.46;1707113;83;25740;-55
2022/06/09 02:03:58;;;;;;;6.12;2.08;;;;;;;16.98;64.25;100522.78;1700431;83;25741;-55
2022/06/09 02:06:28;;;;;;;8.60;2.45;;;;;;;17.01;64.22;100518.34;1702362;83;26461;-55
2022/06/09 02:08:56;;;;;;;4.15;2.62;;;;;;;16.95;64.29;100519.06;1710318;83;25745;-55
2022/06/09 02:11:22;;;;;;;5.80;2.30;;;;;;;16.93;64.43;100524.33;1704913;83;27459;-55
2022/06/09 02:13:52;;;;;;;7.10;2.17;;;;;;;16.87;64.32;100519.98;1707736;83;25916;-56
2022/06/09 02:16:22;;;;;;;3.72;2.08;;;;;;;16.88;64.51;100524.87;1709635;83;25871;-54
2022/06/09 02:18:54;;;;;;;7.28;2.30;;;;;;;16.88;64.68;100517.59;1716021;83;25853;-55
2022/06/09 02:21:32;;;;;;;9.30;2.00;;;;;;;16.87;64.53;100528.63;1718219;83;25812;-55
2022/06/09 02:23:59;;;;;;;7.03;2.35;;;;;;;16.83;64.70;100522.72;1716286;83;28305;-55
2022/06/09 02:26:27;;;;;;;4.67;1.92;;;;;;;16.81;64.59;100532.08;1719323;83;25483;-55
2022/06/09 02:28:54;;;;;;;4.78;2.15;;;;;;;16.79;64.87;100525.98;1722445;81;25815;-55
2022/06/09 02:31:23;;;;;;;7.40;2.60;;;;;;;16.80;65.03;100533.11;1731316;81;25805;-55
2022/06/09 02:33:51;;;;;;;4.22;2.12;;;;;;;16.79;64.83;100532.28;1742910;81;25811;-55
2022/06/09 02:36:19;;;;;;;3.75;2.15;;;;;;;16.82;64.92;100529.17;1747859;81;27514;-55
2022/06/09 02:38:46;;;;;;;3.33;2.08;;;;;;;16.84;65.15;100531.73;1728260;81;26493;-55
2022/06/09 02:41:14;;;;;;;9.30;2.00;;;;;;;16.85;65.10;100532.06;1728748;81;26459;-55
2022/06/09 02:43:42;;;;;;;6.05;2.35;;;;;;;16.84;65.02;100531.20;1731190;81;25893;-54
2022/06/09 02:46:10;;;;;;;5.15;2.37;;;;;;;16.82;65.17;100530.53;1710225;83;26591;-55
2022/06/09 02:48:37;;;;;;;9.28;2.30;;;;;;;16.81;65.16;100531.55;1711039;83;27456;-55
2022/06/09 02:51:27;;;;;;;4.25;2.75;;;;;;;16.82;65.10;100535.13;1718767;82;25861;-54
2022/06/09 02:53:56;;;;;;;8.30;2.33;;;;;;;16.83;64.99;100542.26;1717139;81;25754;-55
2022/06/09 02:56:24;;;;;;;10.28;2.33;;;;;;;16.84;65.21;100538.52;1719741;82;26930;-55
2022/06/09 02:58:51;;;;;;;6.37;2.22;;;;;;;16.85;65.41;100538.85;1720638;82;25825;-55
2022/06/09 03:01:20;;;;;;;7.67;2.75;;;;;;;16.79;66.66;100535.48;1720679;80;27478;-56
2022/06/09 03:03:47;;;;;;;5.35;2.12;;;;;;;16.70;66.10;100541.52;1715357;81;26387;-55
2022/06/09 03:06:15;;;;;;;3.15;2.00;;;;;;;16.69;65.94;100531.68;1717336;82;25862;-55
2022/06/09 03:08:42;;;;;;;13.75;2.10;;;;;;;16.71;66.14;100534.53;1718309;82;26558;-54
2022/06/09 03:11:10;;;;;;;6.40;1.82;;;;;;;16.73;66.13;100528.41;1717888;82;25837;-55
2022/06/09 03:13:40;;;;;;;5.75;2.05;;;;;;;16.72;66.27;100529.94;1715978;82;27492;-55
2022/06/09 03:16:10;;;;;;;5.15;3.05;;;;;;;16.71;66.28;100523.67;1714954;81;25466;-55
2022/06/09 03:18:38;;;;;;;5.83;3.02;;;;;;;16.71;66.13;100524.20;1716889;81;25863;-55
2022/06/09 03:21:05;;;;;;;3.58;2.33;;;;;;;16.76;66.32;100525.01;1713778;81;26603;-53
2022/06/09 03:23:32;;;;;;;5.50;2.50;;;;;;;16.80;66.51;100517.67;1718780;82;27248;-55
2022/06/09 03:25:59;;;;;;;5.40;2.33;;;;;;;16.81;66.36;100522.05;1710972;82;27557;-55
2022/06/09 03:28:26;;;;;;;9.50;2.52;;;;;;;16.80;66.90;100525.81;1720236;82;25916;-55
2022/06/09 03:30:55;;;;;;;5.65;2.10;;;;;;;16.80;67.52;100519.03;1720774;83;25462;-56
2022/06/09 03:33:22;;;;;;;7.08;2.60;;;;;;;16.76;66.60;100531.80;1707734;83;25844;-54
2022/06/09 03:35:50;;;;;;;16.30;2.42;;;;;;;16.76;66.79;100522.30;1715066;83;25864;-56
2022/06/09 03:38:17;;;;;;;10.05;2.98;;;;;;;16.80;66.75;100520.39;1711290;83;27478;-55
2022/06/09 03:40:45;;;;;;;4.28;2.12;;;;;;;16.83;66.62;100521.36;1706527;83;25484;-55
2022/06/09 03:43:11;;;;;;;7.45;3.00;;;;;;;16.88;66.83;100523.02;1715178;83;25762;-56
2022/06/09 03:45:39;;;;;;;8.85;2.67;;;;;;;16.97;66.82;100522.45;1719369;83;26740;-55
2022/06/09 03:48:06;;;;;;;9.28;2.80;;;;;;;17.01;66.59;100525.14;1716512;83;25711;-55
2022/06/09 03:50:34;;;;;;;7.55;2.83;;;;;;;17.06;66.66;100525.95;1714007;83;27531;-53
2022/06/09 03:53:02;;;;;;;8.05;2.35;;;;;;;17.13;66.69;100522.81;1705200;82;25962;-55
2022/06/09 03:55:28;;;;;;;6.65;3.17;;;;;;;17.21;66.85;100527.33;1701937;82;25829;-55
2022/06/09 03:57:55;;;;;;;7.17;2.83;;;;;;;17.27;66.76;100524.36;1710872;83;25769;-54
2022/06/09 04:00:27;;;;;;;7.58;2.70;;;;;;;17.30;66.54;100528.91;1710901;82;25843;-55
2022/06/09 04:02:54;;;;;;;37.75;4.35;;;;;;;17.36;66.48;100524.59;1714105;81;28158;-55
2022/06/09 04:05:22;;;;;;;6.97;2.90;;;;;;;17.46;66.54;100525.69;1720586;83;25732;-55
2022/06/09 04:07:49;;;;;;;8.23;3.08;;;;;;;17.55;66.46;100523.70;1721145;83;25919;-55
2022/06/09 04:10:24;;;;;;;10.60;2.62;;;;;;;17.62;66.41;100525.50;1721482;83;26518;-55
2022/06/09 04:12:51;;;;;;;15.53;2.98;;;;;;;17.71;66.36;100524.86;1713922;82;25901;-55
2022/06/09 04:15:20;;;;;;;9.80;2.65;;;;;;;17.80;66.28;100525.08;1713858;83;27645;-55
2022/06/09 04:17:48;;;;;;;12.47;3.15;;;;;;;17.86;66.13;100526.73;1710162;82;25752;-55
2022/06/09 04:20:18;;;;;;;8.18;3.22;;;;;;;17.93;66.22;100524.94;1701184;82;26156;-56
2022/06/09 04:22:46;;;;;;;6.75;3.50;;;;;;;18.02;66.08;100522.46;1718661;81;25772;-55
2022/06/09 04:25:13;;;;;;;16.77;3.87;;;;;;;18.11;66.04;100525.39;1713900;83;25716;-55
2022/06/09 04:27:40;;;;;;;13.38;3.70;;;;;;;18.19;65.92;100527.66;1717866;82;27478;-55
2022/06/09 04:30:09;;;;;;;19.23;4.15;;;;;;;18.25;65.75;100524.16;1707146;83;25770;-55
2022/06/09 04:32:36;;;;;;;7.83;3.80;;;;;;;18.33;65.57;100523.20;1710965;83;25840;-55
2022/06/09 04:35:05;;;;;;;13.08;4.62;;;;;;;18.39;65.46;100526.01;1707698;83;25833;-55
2022/06/09 04:40:17;;;;;;;11.18;4.67;;;;;;;18.52;64.90;100521.71;1744391;81;27704;-55
2022/06/09 04:42:44;;;;;;;15.53;5.53;;;;;;;18.59;64.57;100524.00;1729608;80;26383;-55
2022/06/09 04:45:11;;;;;;;22.62;5.90;;;;;;;18.69;64.37;100524.48;1742173;81;25826;-55
2022/06/09 04:47:38;;;;;;;21.60;6.37;;;;;;;18.82;64.27;100525.66;1718007;83;25895;-56
2022/06/09 04:50:07;;;;;;;30.82;6.03;;;;;;;18.93;64.06;100525.16;1712200;83;26112;-55
2022/06/09 04:52:35;;;;;;;14.28;5.05;;;;;;;19.04;63.62;100523.26;1735018;81;27548;-55
2022/06/09 04:55:02;;;;;;;26.45;7.30;;;;;;;19.16;63.25;100521.33;1741210;81;25877;-55
2022/06/09 04:57:29;;;;;;;28.02;5.10;;;;;;;19.27;62.84;100520.78;1743379;81;25780;-55
2022/06/09 04:59:56;;;;;;;28.45;6.58;;;;;;;19.37;62.46;100519.05;1737397;81;25774;-56
2022/06/09 05:02:23;;;;;;;28.73;4.95;;;;;;;19.45;62.05;100519.41;1711515;82;26574;-55
2022/06/09 05:04:50;;;;;;;24.20;5.78;;;;;;;19.45;61.40;100520.78;1707098;82;28143;-56
2022/06/09 05:07:17;;;;;;;14.87;4.80;;;;;;;19.44;61.18;100515.00;1717001;82;25489;-56
2022/06/09 05:09:43;;;;;;;26.23;5.35;;;;;;;19.47;61.23;100513.24;1720027;82;25778;-55
2022/06/09 05:12:10;;;;;;;11.63;5.28;;;;;;;19.51;60.99;100516.73;1717769;82;27886;-56
2022/06/09 05:14:37;;;;;;;21.50;5.10;;;;;;;19.54;60.66;100516.84;1692026;84;26448;-55
2022/06/09 05:17:05;;;;;;;14.00;4.87;;;;;;;19.52;60.36;100517.56;1696637;83;27550;-55
2022/06/09 05:19:32;;;;;;;10.98;5.22;;;;;;;19.52;60.15;100521.66;1691473;84;25748;-55
2022/06/09 05:21:59;;;;;;;41.83;7.03;;;;;;;19.50;59.93;100510.95;1698495;82;25876;-55
2022/06/09 05:24:26;;;;;;;22.30;5.58;;;;;;;19.53;59.84;100512.42;1719648;83;25821;-55
2022/06/09 05:26:53;;;;;;;25.17;6.08;;;;;;;19.58;59.38;100514.05;1719207;83;25801;-55
2022/06/09 05:29:20;;;;;;;18.95;4.35;;;;;;;19.63;59.27;100512.08;1719599;83;27467;-55
2022/06/09 05:31:47;;;;;;;21.48;4.35;;;;;;;19.69;59.08;100512.08;1702290;83;27294;-56
2022/06/09 05:34:14;;;;;;;20.90;4.30;;;;;;;19.77;58.98;100511.08;1698806;83;25713;-55
2022/06/09 05:36:41;;;;;;;37.25;5.67;;;;;;;19.83;58.70;100509.42;1699496;83;26039;-55
2022/06/09 05:44:51;;;;;;;19.25;4.17;;;;;;;20.06;58.39;100531.47;1715662;82;25748;-56
2022/06/09 05:47:20;;;;;;;19.48;3.75;;;;;;;20.13;58.24;100524.13;1716523;82;25894;-55
2022/06/09 05:49:51;;;;;;;22.45;3.77;;;;;;;20.19;57.88;100517.88;1713055;83;25738;-55
2022/06/09 05:52:23;;;;;;;34.03;4.40;;;;;;;20.27;57.61;100521.77;1710709;83;25815;-55
2022/06/09 05:54:51;;;;;;;22.30;2.95;;;;;;;20.37;57.62;100521.36;1722356;82;27486;-56
2022/06/09 05:57:20;;;;;;;25.95;3.83;;;;;;;20.46;57.64;100523.39;1704201;83;25783;-55
2022/06/09 05:59:47;;;;;;;14.47;3.22;;;;;;;20.53;57.60;100511.11;1720133;83;25804;-56
2022/06/09 06:02:15;;;;;;;25.25;3.60;;;;;;;20.61;57.45;100509.00;1701740;83;26596;-55
2022/06/09 06:04:43;;;;;;;19.37;2.67;;;;;;;20.71;57.39;100510.48;1703552;83;25826;-56
2022/06/09 06:07:10;;;;;;;25.75;2.70;;;;;;;20.82;57.07;100519.45;1714248;82;27653;-56
2022/06/09 06:09:37;;;;;;;17.85;3.50;;;;;;;20.95;56.80;100523.53;1711471;83;25922;-55
2022/06/09 06:12:06;;;;;;;14.03;3.33;;;;;;;21.08;56.77;100519.95;1700561;81;25526;-56
2022/06/09 06:14:33;;;;;;;14.95;4.03;;;;;;;21.18;56.73;100516.80;1704936;82;25840;-55
2022/06/09 06:17:01;;;;;;;33.40;3.37;;;;;;;21.26;56.13;100512.98;1718811;82;25834;-55
2022/06/09 06:19:28;;;;;;;14.28;3.05;;;;;;;21.38;56.25;100515.92;1713560;81;27647;-55
2022/06/09 06:21:55;;;;;;;6.10;2.00;;;;;;;21.46;56.02;100514.83;1705979;83;25799;-55
2022/06/09 06:24:25;;;;;;;10.60;2.40;;;;;;;21.54;55.27;100507.75;1710261;81;25692;-55
2022/06/09 06:26:53;;;;;;;10.20;2.20;;;;;;;21.67;53.83;100512.37;1735939;81;25843;-55
2022/06/09 06:29:24;;;;;;;11.48;1.90;;;;;;;21.80;52.78;100510.97;1726521;82;25750;-56
2022/06/09 06:31:53;;;;;;;7.97;2.47;;;;;;;21.96;51.68;100514.25;1705207;81;27458;-54
2022/06/09 06:34:20;;;;;;;10.90;2.55;;;;;;;22.07;51.02;100501.25;1706358;83;25774;-56
2022/06/09 06:36:48;;;;;;;15.28;2.95;;;;;;;22.17;51.27;100503.50;1704271;83;25824;-56
2022/06/09 06:39:15;;;;;;;7.12;2.40;;;;;;;22.25;50.58;100501.87;1691976;83;25804;-55
2022/06/09 06:41:42;;;;;;;8.83;2.00;;;;;;;22.36;50.13;100503.91;1691509;83;25485;-55
2022/06/09 06:44:11;;;;;;;13.53;3.00;;;;;;;22.43;50.36;100499.79;1721042;82;27497;-55
2022/06/09 06:46:39;;;;;;;12.43;2.80;;;;;;;22.54;49.68;100496.03;1719676;82;25808;-55
2022/06/09 06:49:08;;;;;;;22.50;3.17;;;;;;;22.62;49.26;100488.36;1702413;83;25759;-56
2022/06/09 06:51:36;;;;;;;11.43;2.65;;;;;;;22.73;48.55;100486.78;1701892;83;25753;-57
2022/06/09 06:54:05;;;;;;;14.60;3.33;;;;;;;22.85;47.59;100492.40;1732047;82;25859;-55
2022/06/09 06:56:34;;;;;;;18.48;3.12;;;;;;;22.95;47.52;100487.77;1717377;81;28335;-55
2022/06/09 06:59:02;;;;;;;15.80;4.97;;;;;;;23.05;47.79;100482.60;1725764;82;25704;-55
2022/06/09 07:01:30;;;;;;;22.90;3.05;;;;;;;23.17;46.97;100480.49;1725825;81;25895;-57
2022/06/09 07:03:58;;;;;;;16.97;2.90;;;;;;;23.27;47.23;100486.30;1718638;82;25785;-54
2022/06/09 07:06:25;;;;;;;12.20;2.75;;;;;;;23.37;47.03;100478.92;1722362;82;25925;-55
2022/06/09 07:08:52;;;;;;;24.77;3.87;;;;;;;23.46;46.67;100476.18;1718745;82;28334;-55
2022/06/09 07:11:19;;;;;;;13.28;2.58;;;;;;;23.56;46.31;100469.62;1719949;82;25865;-56
2022/06/09 07:13:46;;;;;;;18.82;3.55;;;;;;;23.70;45.04;100472.19;1714443;83;25724;-56
2022/06/09 07:16:13;;;;;;;12.10;2.58;;;;;;;23.83;45.44;100466.53;1720702;83;25800;-55
2022/06/09 07:18:40;;;;;;;9.78;3.37;;;;;;;23.97;44.89;100471.34;1716354;83;26522;-56
2022/06/09 07:21:09;;;;;;;16.42;2.90;;;;;;;24.11;43.98;100467.02;1708214;83;27462;-56
2022/06/09 07:23:37;;;;;;;12.10;2.75;;;;;;;24.25;43.34;100473.16;1712400;83;25731;-56
2022/06/09 07:26:05;;;;;;;9.08;3.22;;;;;;;24.34;43.32;100467.63;1715970;83;25874;-56
2022/06/09 07:28:33;;;;;;;11.83;3.15;;;;;;;24.43;43.45;100464.83;1702720;83;25869;-56
2022/06/09 07:31:02;;;;;;;14.28;3.80;;;;;;;24.52;43.69;100466.17;1713745;83;25768;-56
2022/06/09 07:33:32;;;;;;;10.55;2.83;;;;;;;24.63;42.62;100457.63;1695022;83;26998;-56
2022/06/09 07:36:00;;;;;;;8.15;2.85;;;;;;;24.74;42.52;100462.89;1707625;83;26010;-56
2022/06/09 07:38:29;;;;;;;7.97;3.40;;;;;;;24.80;42.23;100463.82;1714187;83;25940;-56
2022/06/09 07:40:57;;;;;;;6.05;2.77;;;;;;;24.89;42.11;100470.64;1712973;83;25819;-56
2022/06/09 07:43:24;;;;;;;14.87;2.80;;;;;;;25.01;41.77;100467.91;1709262;83;25923;-56
2022/06/09 07:45:51;;;;;;;18.90;3.05;;;;;;;25.08;42.00;100468.63;1720155;83;27468;-56
2022/06/09 07:48:20;;;;;;;14.18;2.87;;;;;;;25.17;42.00;100470.45;1720468;83;25911;-56
2022/06/09 07:50:49;;;;;;;23.92;3.92;;;;;;;25.25;41.38;100463.75;1721195;83;25821;-56
2022/06/09 07:53:19;;;;;;;10.90;2.50;;;;;;;25.35;41.35;100463.98;1704241;81;26602;-56
2022/06/09 07:55:46;;;;;;;15.63;2.67;;;;;;;25.48;41.27;100467.03;1715257;83;25912;-56
2022/06/09 07:58:15;;;;;;;13.38;2.45;;;;;;;25.58;40.61;100465.88;1706572;81;27473;-56
2022/06/09 08:00:42;;;;;;;8.15;3.20;;;;;;;25.68;40.66;100463.03;1703467;82;26238;-56
2022/06/09 08:03:16;;;;;;;13.22;2.70;;;;;;;25.75;40.54;100469.23;1717970;81;25495;-56
2022/06/09 08:05:43;;;;;;;11.10;2.45;;;;;;;25.82;40.71;100460.27;1700066;82;25881;-56
2022/06/09 08:08:11;;;;;;;48.15;4.35;;;;;;;25.92;40.11;100462.38;1708015;81;25824;-56
2022/06/09 08:10:41;;;;;;;14.25;2.72;;;;;;;26.03;39.69;100468.38;1701783;82;27712;-56
2022/06/09 08:13:09;;;;;;;11.45;2.47;;;;;;;26.12;39.57;100463.87;1702950;82;25496;-56
2022/06/09 08:15:37;;;;;;;13.53;2.60;;;;;;;26.23;39.61;100467.13;1716981;82;25871;-56
2022/06/09 08:18:06;;;;;;;29.63;3.45;;;;;;;26.34;39.21;100462.61;1721452;83;26545;-56
2022/06/09 08:20:36;;;;;;;10.80;2.87;;;;;;;26.45;38.58;100458.13;1717283;81;25922;-56
2022/06/09 08:23:09;;;;;;;11.65;2.70;;;;;;;26.53;38.37;100453.02;1720616;83;27530;-56
2022/06/09 08:25:39;;;;;;;20.85;3.50;;;;;;;26.62;38.07;100456.21;1709852;82;25876;-56
2022/06/09 08:28:08;;;;;;;10.72;3.10;;;;;;;26.71;37.09;100449.19;1719233;83;25875;-56
2022/06/09 08:30:36;;;;;;;10.30;3.62;;;;;;;26.84;36.58;100449.41;1720500;83;25777;-57
2022/06/09 08:33:05;;;;;;;13.35;3.70;;;;;;;26.95;35.97;100452.30;1685568;81;26476;-57
2022/06/09 08:35:34;;;;;;;9.88;2.60;;;;;;;27.06;35.94;100454.68;1684474;84;28398;-56
2022/06/09 08:38:03;;;;;;;9.73;2.50;;;;;;;27.21;35.78;100459.59;1679298;84;25940;-56
2022/06/09 08:40:54;;;;;;;39.83;5.15;;;;;;;27.34;35.60;100457.25;1668808;84;25827;-56
2022/06/09 08:43:47;;;;;;;14.83;2.58;;;;;;;27.51;35.19;100446.75;1676049;84;27908;-56
2022/06/09 08:46:37;;;;;;;9.53;2.20;;;;;;;27.72;32.47;100456.64;1694862;83;25744;-56
2022/06/09 08:49:08;;;;;;;17.30;1.87;;;;;;;27.85;32.59;100450.72;1710524;83;27756;-56
2022/06/09 08:51:40;;;;;;;6.65;1.10;;;;;;;28.03;32.26;100455.04;1709531;82;25885;-56
2022/06/09 08:54:22;;;;;;;11.20;2.10;;;;;;;28.20;31.40;100452.20;1716319;81;26478;-56
2022/06/09 08:56:50;;;;;;;16.97;2.35;;;;;;;28.44;31.60;100451.85;1720947;83;25782;-58
2022/06/09 08:59:21;;;;;;;9.15;2.12;;;;;;;28.72;31.79;100445.73;1720384;83;25831;-56
2022/06/09 09:01:59;;;;;;;7.92;2.20;;;;;;;28.86;31.62;100444.19;1709422;81;27682;-56
2022/06/09 09:04:37;;;;;;;12.07;3.45;;;;;;;29.06;31.44;100434.31;1706782;81;25912;-56
2022/06/09 09:07:30;;;;;;;14.83;2.20;;;;;;;29.35;30.38;100436.17;1713032;81;25703;-56
2022/06/09 09:10:02;;;;;;;8.10;1.98;;;;;;;29.42;30.08;100436.47;1708156;81;25863;-57
2022/06/09 09:13:11;;;;;;;5.20;2.22;;;;;;;29.42;30.17;100438.67;1700498;82;25512;-56
2022/06/09 09:15:52;;;;;;;5.78;2.10;;;;;;;29.60;30.45;100430.44;1709164;82;27556;-56
2022/06/09 09:18:42;;;;;;;10.32;2.27;;;;;;;30.00;30.26;100424.44;1717208;83;25869;-56
2022/06/09 09:22:06;;;;;;;6.65;1.85;;;;;;;30.35;29.90;100426.95;1717712;81;25849;-56
2022/06/09 09:24:42;;;;;;;;;;;;;;;30.64;28.86;100437.52;1653417;84;26898;-56
2022/06/09 09:27:38;;;;;;;8.95;1.87;;;;;;;30.96;28.34;100430.25;1653844;85;25912;-56
2022/06/09 09:30:13;;;;;;;5.72;2.10;;;;;;;31.25;28.15;100426.86;1724479;81;27665;-56
2022/06/09 09:32:46;;;;;;;11.05;2.20;;;;;;;31.66;27.98;100425.84;1698840;80;25726;-56
2022/06/09 09:35:18;;;;;;;19.15;2.25;;;;;;;31.78;27.06;100420.77;1727421;81;26408;-56
2022/06/09 09:37:50;;;;;;;12.23;2.30;;;;;;;31.63;26.89;100421.69;1702150;83;25798;-56
2022/06/09 09:40:39;;;;;;;11.03;1.72;;;;;;;31.39;27.08;100427.08;1703475;83;25761;-56
2022/06/09 09:43:16;;;;;;;10.80;2.30;;;;;;;31.18;26.88;100418.82;1691588;82;27515;-56
2022/06/09 09:45:51;;;;;;;6.10;1.90;;;;;;;31.60;26.80;100411.70;1733121;82;25732;-56
2022/06/09 09:48:24;;;;;;;6.40;1.72;;;;;;;32.16;26.48;100407.16;1740396;80;25868;-56
2022/06/09 09:51:12;;;;;;;11.97;1.60;;;;;;;32.62;25.07;100411.52;1719985;82;25860;-56
2022/06/09 09:53:56;;;;;;;4.83;1.10;;;;;;;32.98;24.87;100408.93;1732553;81;25764;-56
2022/06/09 09:56:34;;;;;;;7.30;1.67;;;;;;;33.36;24.45;100402.09;1712529;82;28327;-56
2022/06/09 09:59:06;;;;;;;16.90;2.15;;;;;;;33.83;23.95;100405.63;1703498;81;25809;-56
2022/06/09 10:10:17;;;;;;;11.20;2.10;;;;;;;35.27;22.15;100412.04;1710594;82;28426;-56
2022/06/09 10:12:45;;;;;;;27.15;9.23;;;;;;;35.63;20.61;100404.88;1709381;81;25826;-56
2022/06/09 10:15:19;;;;;;;13.72;2.00;;;;;;;35.79;20.08;100409.52;1710996;82;25792;-56
2022/06/09 10:18:16;;;;;;;26.48;2.12;;;;;;;35.88;20.52;100400.07;1712048;82;25942;-56
2022/06/09 10:21:03;;;;;;;10.88;1.47;;;;;;;36.08;20.26;100403.55;1717105;81;25855;-57
2022/06/09 10:23:48;;;;;;;9.35;1.75;;;;;;;36.50;19.95;100397.17;1714813;82;27699;-56
2022/06/09 10:26:35;;;;;;;13.83;1.98;;;;;;;36.63;20.21;100393.17;1716112;82;27280;-56
2022/06/09 10:29:14;;;;;;;22.80;2.40;;;;;;;36.56;19.80;100397.86;1711528;82;25777;-56
2022/06/09 10:31:46;;;;;;;15.83;1.50;;;;;;;36.60;19.39;100398.85;1709263;81;25900;-56
2022/06/09 10:34:39;;;;;;;8.38;1.87;;;;;;;37.16;18.75;100396.23;1703928;83;25934;-56
2022/06/09 10:37:29;;;;;;;16.27;1.62;;;;;;;37.21;18.82;100394.66;1715887;83;33183;-56
2022/06/09 10:40:22;;;;;;;17.40;1.77;;;;;;;37.67;18.52;100392.43;1715206;82;25498;-56
2022/06/09 10:42:57;;;;;;;12.05;1.60;;;;;;;37.38;18.04;100386.31;1712489;83;25720;-56
2022/06/09 10:45:39;;;;;;;11.22;1.85;;;;;;;37.22;19.34;100384.51;1715256;83;26766;-56
2022/06/09 10:57:10;;;;;;;;;;;;;;;39.08;17.42;100383.98;1753777;81;25858;-57
2022/06/09 11:00:03;;;;;;;7.20;1.25;;;;;;;39.54;17.40;100374.91;1750614;81;26058;-56
2022/06/09 11:02:32;;;;;;;4.08;1.47;;;;;;;39.78;17.31;100370.62;1751901;81;25802;-56
2022/06/09 11:05:01;;;;;;;13.22;1.85;;;;;;;40.39;16.92;100364.36;1752527;81;28303;-56
2022/06/09 11:07:44;;;;;;;15.10;1.52;;;;;;;40.64;16.34;100368.08;1750632;81;25822;-56
2022/06/09 11:10:22;;;;;;;14.65;1.75;;;;;;;40.29;16.27;100370.47;1751238;81;25715;-56
2022/06/09 11:13:11;;;;;;;8.68;1.80;;;;;;;40.40;15.69;100362.39;1751101;81;25822;-56
2022/06/09 11:16:16;;;;;;;6.05;1.32;;;;;;;40.42;16.18;100355.82;1752288;81;25493;-56
2022/06/09 11:19:10;;;;;;;2.30;1.42;;;;;;;40.75;15.91;100356.34;1751854;81;27479;-56
2022/06/09 11:21:54;;;;;;;8.45;1.50;;;;;;;41.16;15.42;100354.44;1751706;81;25916;-56
2022/06/09 11:24:42;;;;;;;8.73;1.82;;;;;;;41.50;14.76;100347.22;1750842;81;25745;-56
2022/06/09 11:27:27;;;;;;;9.03;1.37;;;;;;;41.69;14.83;100349.41;1753203;81;25790;-56
2022/06/09 11:30:26;;;;;;;15.13;1.72;;;;;;;41.94;14.76;100346.50;1708282;81;26254;-56
2022/06/09 11:33:27;;;;;;;5.50;1.57;;;;;;;42.28;14.61;100347.00;1688378;83;27519;-56
2022/06/09 11:36:00;;;;;;;11.70;1.87;;;;;;;42.47;14.62;100333.00;1708121;83;25868;-56
2022/06/09 11:38:53;;;;;;;10.43;2.10;;;;;;;42.76;14.13;100339.39;1701062;83;37225;-56
2022/06/09 11:41:34;;;;;;;39.42;2.77;;;;;;;42.76;14.44;100337.14;1712052;82;25895;-56
2022/06/09 11:44:09;;;;;;;14.73;1.53;;;;;;;42.41;14.34;100332.22;1701070;84;25795;-57
2022/06/09 11:46:40;;;;;;;6.90;1.75;;;;;;;42.31;14.62;100317.41;1708472;83;28184;-56
2022/06/09 11:49:21;;;;;;;9.05;1.62;;;;;;;41.66;14.26;100323.30;1715621;83;26585;-56
2022/06/09 11:51:50;;;;;;;11.25;1.80;;;;;;;41.71;14.88;100314.55;1718619;82;25815;-56
2022/06/09 11:54:39;;;;;;;5.22;1.32;;;;;;;40.72;14.57;100324.61;1715432;81;25793;-57
2022/06/09 11:57:38;;;;;;;12.93;1.85;;;;;;;40.83;15.11;100318.16;1735907;81;25901;-56
2022/06/09 12:00:30;;;;;;;16.02;1.77;;;;;;;41.53;14.37;100321.12;1702743;81;27652;-56
2022/06/09 12:03:23;;;;;;;5.35;1.20;;;;;;;42.18;14.08;100322.33;1708098;81;26061;-56
2022/06/09 12:06:01;;;;;;;5.22;1.40;;;;;;;42.49;13.71;100318.48;1700248;81;25752;-56
2022/06/09 12:09:06;;;;;;;7.47;1.50;;;;;;;43.22;13.79;100318.20;1715380;82;25799;-56
2022/06/09 12:11:54;;;;;;;19.05;2.22;;;;;;;43.21;14.02;100320.83;1691897;83;25925;-55
2022/06/09 12:14:35;;;;;;;14.53;1.92;;;;;;;42.13;14.00;100321.20;1728963;82;28195;-56